sensor_id;sensor_type;location;lat;lon;timestamp;P1;durP1;ratioP1;P2;durP2;ratioP2
23474;SDS011;11910;52.086;21.066;2023-07-20T00:01:13;4.50;;;2.80;;
23474;SDS011;11910;52.086;21.066;2023-07-20T00:03:39;5.72;;;3.03;;
23474;SDS011;11910;52.086;21.066;2023-07-20T00:06:05;3.92;;;2.80;;
23474;SDS011;11910;52.086;21.066;2023-07-20T00:08:31;4.50;;;2.95;;
23474;SDS011;11910;52.086;21.066;2023-07-20T00:10:56;6.30;;;2.90;;
23474;SDS011;11910;52.086;21.066;2023-07-20T00:13:22;3.75;;;2.72;;
23474;SDS011;11910;52.086;21.066;2023-07-20T00:15:47;3.92;;;2.63;;
23474;SDS011;11910;52.086;21.066;2023-07-20T00:18:13;3.43;;;2.80;;
23474;SDS011;11910;52.086;21.066;2023-07-20T00:20:39;3.83;;;2.78;;
23474;SDS011;11910;52.086;21.066;2023-07-20T00:23:05;4.63;;;2.88;;
23474;SDS011;11910;52.086;21.066;2023-07-20T00:25:31;4.68;;;2.92;;
23474;SDS011;11910;52.086;21.066;2023-07-20T00:27:57;4.60;;;3.10;;
23474;SDS011;11910;52.086;21.066;2023-07-20T00:30:22;3.45;;;2.83;;
23474;SDS011;11910;52.086;21.066;2023-07-20T00:32:48;3.97;;;2.58;;
23474;SDS011;11910;52.086;21.066;2023-07-20T00:35:13;4.38;;;2.67;;
23474;SDS011;11910;52.086;21.066;2023-07-20T00:37:39;4.07;;;2.80;;
23474;SDS011;11910;52.086;21.066;2023-07-20T00:40:05;4.28;;;3.05;;
23474;SDS011;11910;52.086;21.066;2023-07-20T00:42:32;4.55;;;3.10;;
23474;SDS011;11910;52.086;21.066;2023-07-20T00:44:58;3.40;;;3.10;;
23474;SDS011;11910;52.086;21.066;2023-07-20T00:47:24;6.03;;;3.03;;
23474;SDS011;11910;52.086;21.066;2023-07-20T00:49:50;5.47;;;2.90;;
23474;SDS011;11910;52.086;21.066;2023-07-20T00:52:16;3.88;;;2.83;;
23474;SDS011;11910;52.086;21.066;2023-07-20T00:54:45;3.88;;;2.95;;
23474;SDS011;11910;52.086;21.066;2023-07-20T00:57:12;5.25;;;2.95;;
23474;SDS011;11910;52.086;21.066;2023-07-20T00:59:39;4.88;;;3.22;;
23474;SDS011;11910;52.086;21.066;2023-07-20T01:02:05;4.97;;;3.13;;
23474;SDS011;11910;52.086;21.066;2023-07-20T01:04:31;3.63;;;2.85;;
23474;SDS011;11910;52.086;21.066;2023-07-20T01:06:58;4.65;;;3.22;;
23474;SDS011;11910;52.086;21.066;2023-07-20T01:09:27;6.22;;;3.10;;
23474;SDS011;11910;52.086;21.066;2023-07-20T01:14:28;4.97;;;2.92;;
23474;SDS011;11910;52.086;21.066;2023-07-20T01:16:54;4.88;;;2.80;;
23474;SDS011;11910;52.086;21.066;2023-07-20T01:19:20;3.97;;;2.90;;
23474;SDS011;11910;52.086;21.066;2023-07-20T01:24:53;3.05;;;2.47;;
23474;SDS011;11910;52.086;21.066;2023-07-20T01:33:15;4.25;;;2.70;;
23474;SDS011;11910;52.086;21.066;2023-07-20T01:35:43;3.53;;;2.70;;
23474;SDS011;11910;52.086;21.066;2023-07-20T01:38:11;3.35;;;2.60;;
23474;SDS011;11910;52.086;21.066;2023-07-20T01:40:39;5.47;;;2.83;;
23474;SDS011;11910;52.086;21.066;2023-07-20T01:43:04;4.03;;;2.63;;
23474;SDS011;11910;52.086;21.066;2023-07-20T01:45:30;4.75;;;3.20;;
23474;SDS011;11910;52.086;21.066;2023-07-20T01:47:56;3.92;;;2.97;;
23474;SDS011;11910;52.086;21.066;2023-07-20T01:50:21;6.35;;;3.22;;
23474;SDS011;11910;52.086;21.066;2023-07-20T01:52:47;3.92;;;2.40;;
23474;SDS011;11910;52.086;21.066;2023-07-20T01:55:13;5.30;;;2.80;;
23474;SDS011;11910;52.086;21.066;2023-07-20T01:57:39;3.00;;;2.70;;
23474;SDS011;11910;52.086;21.066;2023-07-20T02:00:04;2.95;;;2.40;;
23474;SDS011;11910;52.086;21.066;2023-07-20T02:02:31;4.20;;;2.55;;
23474;SDS011;11910;52.086;21.066;2023-07-20T02:04:57;5.43;;;3.22;;
23474;SDS011;11910;52.086;21.066;2023-07-20T02:07:23;5.28;;;3.00;;
23474;SDS011;11910;52.086;21.066;2023-07-20T02:09:48;3.42;;;2.78;;
23474;SDS011;11910;52.086;21.066;2023-07-20T02:12:14;3.65;;;2.95;;
23474;SDS011;11910;52.086;21.066;2023-07-20T02:14:39;4.50;;;3.20;;
23474;SDS011;11910;52.086;21.066;2023-07-20T02:17:05;2.97;;;2.67;;
23474;SDS011;11910;52.086;21.066;2023-07-20T02:19:30;4.07;;;2.97;;
23474;SDS011;11910;52.086;21.066;2023-07-20T02:21:56;3.10;;;2.80;;
23474;SDS011;11910;52.086;21.066;2023-07-20T02:24:22;7.07;;;3.20;;
23474;SDS011;11910;52.086;21.066;2023-07-20T02:26:47;5.43;;;2.95;;
23474;SDS011;11910;52.086;21.066;2023-07-20T02:29:13;5.13;;;3.10;;
23474;SDS011;11910;52.086;21.066;2023-07-20T02:31:39;5.72;;;3.03;;
23474;SDS011;11910;52.086;21.066;2023-07-20T02:34:07;5.07;;;3.10;;
23474;SDS011;11910;52.086;21.066;2023-07-20T02:36:34;3.58;;;2.78;;
23474;SDS011;11910;52.086;21.066;2023-07-20T02:39:00;3.63;;;2.90;;
23474;SDS011;11910;52.086;21.066;2023-07-20T02:41:28;4.40;;;2.72;;
23474;SDS011;11910;52.086;21.066;2023-07-20T02:43:55;7.15;;;3.63;;
23474;SDS011;11910;52.086;21.066;2023-07-20T02:46:21;5.35;;;3.20;;
23474;SDS011;11910;52.086;21.066;2023-07-20T02:48:47;5.45;;;3.78;;
23474;SDS011;11910;52.086;21.066;2023-07-20T02:51:13;5.50;;;3.30;;
23474;SDS011;11910;52.086;21.066;2023-07-20T02:53:38;4.35;;;2.90;;
23474;SDS011;11910;52.086;21.066;2023-07-20T02:56:04;3.88;;;3.15;;
23474;SDS011;11910;52.086;21.066;2023-07-20T02:58:29;3.92;;;3.20;;
23474;SDS011;11910;52.086;21.066;2023-07-20T03:00:55;5.70;;;3.40;;
23474;SDS011;11910;52.086;21.066;2023-07-20T03:03:20;5.22;;;3.25;;
23474;SDS011;11910;52.086;21.066;2023-07-20T03:05:46;4.90;;;3.50;;
23474;SDS011;11910;52.086;21.066;2023-07-20T03:08:11;7.68;;;3.53;;
23474;SDS011;11910;52.086;21.066;2023-07-20T03:10:38;10.77;;;3.83;;
23474;SDS011;11910;52.086;21.066;2023-07-20T03:13:05;8.48;;;3.00;;
23474;SDS011;11910;52.086;21.066;2023-07-20T03:15:31;6.43;;;3.10;;
23474;SDS011;11910;52.086;21.066;2023-07-20T03:17:57;9.27;;;3.47;;
23474;SDS011;11910;52.086;21.066;2023-07-20T03:20:23;6.18;;;3.60;;
23474;SDS011;11910;52.086;21.066;2023-07-20T03:22:49;9.10;;;3.08;;
23474;SDS011;11910;52.086;21.066;2023-07-20T03:25:15;8.80;;;2.97;;
23474;SDS011;11910;52.086;21.066;2023-07-20T03:27:40;5.65;;;3.30;;
23474;SDS011;11910;52.086;21.066;2023-07-20T03:30:06;7.75;;;3.38;;
23474;SDS011;11910;52.086;21.066;2023-07-20T03:32:35;4.97;;;3.42;;
23474;SDS011;11910;52.086;21.066;2023-07-20T03:35:00;7.93;;;3.88;;
23474;SDS011;11910;52.086;21.066;2023-07-20T03:37:26;7.18;;;2.92;;
23474;SDS011;11910;52.086;21.066;2023-07-20T03:39:52;11.65;;;4.00;;
23474;SDS011;11910;52.086;21.066;2023-07-20T03:42:17;7.82;;;3.75;;
23474;SDS011;11910;52.086;21.066;2023-07-20T03:44:43;8.18;;;4.00;;
23474;SDS011;11910;52.086;21.066;2023-07-20T03:47:08;9.35;;;3.63;;
23474;SDS011;11910;52.086;21.066;2023-07-20T03:49:34;6.68;;;3.50;;
23474;SDS011;11910;52.086;21.066;2023-07-20T03:52:00;6.63;;;3.70;;
23474;SDS011;11910;52.086;21.066;2023-07-20T03:54:28;6.25;;;3.88;;
23474;SDS011;11910;52.086;21.066;2023-07-20T03:56:54;6.55;;;3.53;;
23474;SDS011;11910;52.086;21.066;2023-07-20T03:59:19;7.80;;;3.90;;
23474;SDS011;11910;52.086;21.066;2023-07-20T04:01:45;8.63;;;4.35;;
23474;SDS011;11910;52.086;21.066;2023-07-20T04:04:11;5.10;;;3.65;;
23474;SDS011;11910;52.086;21.066;2023-07-20T04:06:37;8.75;;;3.50;;
23474;SDS011;11910;52.086;21.066;2023-07-20T04:09:03;6.07;;;3.80;;
23474;SDS011;11910;52.086;21.066;2023-07-20T04:11:30;8.40;;;3.80;;
23474;SDS011;11910;52.086;21.066;2023-07-20T04:13:55;12.05;;;4.25;;
23474;SDS011;11910;52.086;21.066;2023-07-20T04:16:21;7.10;;;3.90;;
23474;SDS011;11910;52.086;21.066;2023-07-20T04:18:47;7.72;;;4.20;;
23474;SDS011;11910;52.086;21.066;2023-07-20T04:21:12;10.43;;;4.47;;
23474;SDS011;11910;52.086;21.066;2023-07-20T04:23:38;13.10;;;5.72;;
23474;SDS011;11910;52.086;21.066;2023-07-20T04:26:03;9.32;;;4.68;;
23474;SDS011;11910;52.086;21.066;2023-07-20T04:28:29;8.50;;;4.80;;
23474;SDS011;11910;52.086;21.066;2023-07-20T04:31:09;9.85;;;5.07;;
23474;SDS011;11910;52.086;21.066;2023-07-20T04:33:36;12.20;;;5.93;;
23474;SDS011;11910;52.086;21.066;2023-07-20T04:36:02;13.07;;;5.50;;
23474;SDS011;11910;52.086;21.066;2023-07-20T04:38:28;10.20;;;5.55;;
23474;SDS011;11910;52.086;21.066;2023-07-20T04:40:53;7.68;;;6.03;;
23474;SDS011;11910;52.086;21.066;2023-07-20T04:43:19;8.70;;;5.70;;
23474;SDS011;11910;52.086;21.066;2023-07-20T04:45:44;8.38;;;5.40;;
23474;SDS011;11910;52.086;21.066;2023-07-20T04:48:11;11.43;;;6.45;;
23474;SDS011;11910;52.086;21.066;2023-07-20T04:50:41;8.90;;;5.68;;
23474;SDS011;11910;52.086;21.066;2023-07-20T04:53:09;10.98;;;6.07;;
23474;SDS011;11910;52.086;21.066;2023-07-20T04:55:36;10.07;;;5.90;;
23474;SDS011;11910;52.086;21.066;2023-07-20T04:58:05;8.23;;;5.72;;
23474;SDS011;11910;52.086;21.066;2023-07-20T05:00:32;8.80;;;6.13;;
23474;SDS011;11910;52.086;21.066;2023-07-20T05:02:58;8.48;;;5.95;;
23474;SDS011;11910;52.086;21.066;2023-07-20T05:05:24;7.65;;;6.10;;
23474;SDS011;11910;52.086;21.066;2023-07-20T05:07:50;8.55;;;6.10;;
23474;SDS011;11910;52.086;21.066;2023-07-20T05:10:15;7.05;;;5.68;;
23474;SDS011;11910;52.086;21.066;2023-07-20T05:12:41;8.80;;;5.93;;
23474;SDS011;11910;52.086;21.066;2023-07-20T05:15:07;8.80;;;6.63;;
23474;SDS011;11910;52.086;21.066;2023-07-20T05:17:35;9.13;;;5.70;;
23474;SDS011;11910;52.086;21.066;2023-07-20T05:20:01;10.88;;;6.20;;
23474;SDS011;11910;52.086;21.066;2023-07-20T05:22:28;8.00;;;5.78;;
23474;SDS011;11910;52.086;21.066;2023-07-20T05:24:54;14.32;;;6.45;;
23474;SDS011;11910;52.086;21.066;2023-07-20T05:27:19;10.63;;;6.03;;
23474;SDS011;11910;52.086;21.066;2023-07-20T05:29:45;11.65;;;6.68;;
23474;SDS011;11910;52.086;21.066;2023-07-20T05:32:11;13.02;;;7.07;;
23474;SDS011;11910;52.086;21.066;2023-07-20T05:34:37;19.13;;;7.32;;
23474;SDS011;11910;52.086;21.066;2023-07-20T05:37:03;14.05;;;6.53;;
23474;SDS011;11910;52.086;21.066;2023-07-20T05:39:32;9.38;;;6.25;;
23474;SDS011;11910;52.086;21.066;2023-07-20T05:41:58;10.55;;;6.70;;
23474;SDS011;11910;52.086;21.066;2023-07-20T05:44:23;11.65;;;6.50;;
23474;SDS011;11910;52.086;21.066;2023-07-20T05:46:49;11.57;;;6.68;;
23474;SDS011;11910;52.086;21.066;2023-07-20T05:49:15;9.25;;;6.90;;
23474;SDS011;11910;52.086;21.066;2023-07-20T05:51:40;10.30;;;6.05;;
23474;SDS011;11910;52.086;21.066;2023-07-20T05:54:06;11.60;;;6.00;;
23474;SDS011;11910;52.086;21.066;2023-07-20T05:56:31;12.40;;;5.57;;
23474;SDS011;11910;52.086;21.066;2023-07-20T05:58:57;11.10;;;6.35;;
23474;SDS011;11910;52.086;21.066;2023-07-20T06:01:22;10.13;;;6.03;;
23474;SDS011;11910;52.086;21.066;2023-07-20T06:03:51;11.77;;;6.30;;
23474;SDS011;11910;52.086;21.066;2023-07-20T06:06:17;11.95;;;6.40;;
23474;SDS011;11910;52.086;21.066;2023-07-20T06:08:43;13.75;;;6.40;;
23474;SDS011;11910;52.086;21.066;2023-07-20T06:11:09;10.40;;;6.28;;
23474;SDS011;11910;52.086;21.066;2023-07-20T06:13:35;8.95;;;5.93;;
23474;SDS011;11910;52.086;21.066;2023-07-20T06:16:03;6.50;;;5.38;;
23474;SDS011;11910;52.086;21.066;2023-07-20T06:18:29;8.23;;;5.38;;
23474;SDS011;11910;52.086;21.066;2023-07-20T06:20:55;8.18;;;5.28;;
23474;SDS011;11910;52.086;21.066;2023-07-20T06:23:21;8.55;;;5.25;;
23474;SDS011;11910;52.086;21.066;2023-07-20T06:25:47;9.50;;;5.63;;
23474;SDS011;11910;52.086;21.066;2023-07-20T06:28:13;8.48;;;5.53;;
23474;SDS011;11910;52.086;21.066;2023-07-20T06:30:39;8.32;;;5.60;;
23474;SDS011;11910;52.086;21.066;2023-07-20T06:33:05;6.40;;;5.40;;
23474;SDS011;11910;52.086;21.066;2023-07-20T06:35:31;9.10;;;6.55;;
23474;SDS011;11910;52.086;21.066;2023-07-20T06:38:03;8.00;;;5.22;;
23474;SDS011;11910;52.086;21.066;2023-07-20T06:40:28;9.93;;;5.40;;
23474;SDS011;11910;52.086;21.066;2023-07-20T06:42:57;7.30;;;5.57;;
23474;SDS011;11910;52.086;21.066;2023-07-20T06:45:22;9.70;;;5.00;;
23474;SDS011;11910;52.086;21.066;2023-07-20T06:47:57;7.80;;;5.60;;
23474;SDS011;11910;52.086;21.066;2023-07-20T06:50:23;9.70;;;5.80;;
23474;SDS011;11910;52.086;21.066;2023-07-20T06:52:48;6.20;;;5.60;;
23474;SDS011;11910;52.086;21.066;2023-07-20T06:55:27;8.02;;;5.50;;
23474;SDS011;11910;52.086;21.066;2023-07-20T06:57:53;6.45;;;5.22;;
23474;SDS011;11910;52.086;21.066;2023-07-20T07:00:19;9.20;;;5.70;;
23474;SDS011;11910;52.086;21.066;2023-07-20T07:02:45;10.98;;;6.25;;
23474;SDS011;11910;52.086;21.066;2023-07-20T07:05:10;11.15;;;6.40;;
23474;SDS011;11910;52.086;21.066;2023-07-20T07:07:38;9.60;;;6.13;;
23474;SDS011;11910;52.086;21.066;2023-07-20T07:10:04;10.13;;;6.82;;
23474;SDS011;11910;52.086;21.066;2023-07-20T07:12:30;9.73;;;6.82;;
23474;SDS011;11910;52.086;21.066;2023-07-20T07:14:56;7.75;;;6.13;;
23474;SDS011;11910;52.086;21.066;2023-07-20T07:17:22;10.85;;;6.22;;
23474;SDS011;11910;52.086;21.066;2023-07-20T07:19:52;8.93;;;6.78;;
23474;SDS011;11910;52.086;21.066;2023-07-20T07:22:21;9.48;;;6.30;;
23474;SDS011;11910;52.086;21.066;2023-07-20T07:24:47;9.77;;;7.03;;
23474;SDS011;11910;52.086;21.066;2023-07-20T07:27:13;9.77;;;6.57;;
23474;SDS011;11910;52.086;21.066;2023-07-20T07:29:41;11.45;;;7.03;;
23474;SDS011;11910;52.086;21.066;2023-07-20T07:32:14;11.75;;;7.28;;
23474;SDS011;11910;52.086;21.066;2023-07-20T07:34:40;10.63;;;7.07;;
23474;SDS011;11910;52.086;21.066;2023-07-20T07:37:06;10.52;;;7.10;;
23474;SDS011;11910;52.086;21.066;2023-07-20T07:39:32;10.82;;;7.70;;
23474;SDS011;11910;52.086;21.066;2023-07-20T07:41:58;10.18;;;7.40;;
23474;SDS011;11910;52.086;21.066;2023-07-20T07:44:24;13.38;;;8.00;;
23474;SDS011;11910;52.086;21.066;2023-07-20T07:46:52;10.63;;;7.13;;
23474;SDS011;11910;52.086;21.066;2023-07-20T07:49:38;9.85;;;8.00;;
23474;SDS011;11910;52.086;21.066;2023-07-20T07:52:04;12.90;;;8.30;;
23474;SDS011;11910;52.086;21.066;2023-07-20T07:54:30;9.75;;;7.90;;
23474;SDS011;11910;52.086;21.066;2023-07-20T07:56:56;9.52;;;7.70;;
23474;SDS011;11910;52.086;21.066;2023-07-20T07:59:26;15.15;;;8.00;;
23474;SDS011;11910;52.086;21.066;2023-07-20T08:01:52;13.30;;;8.27;;
23474;SDS011;11910;52.086;21.066;2023-07-20T08:04:18;10.23;;;7.78;;
23474;SDS011;11910;52.086;21.066;2023-07-20T08:06:44;13.35;;;8.43;;
23474;SDS011;11910;52.086;21.066;2023-07-20T08:09:10;12.23;;;8.25;;
23474;SDS011;11910;52.086;21.066;2023-07-20T08:11:35;10.10;;;7.82;;
23474;SDS011;11910;52.086;21.066;2023-07-20T08:14:01;11.43;;;8.13;;
23474;SDS011;11910;52.086;21.066;2023-07-20T08:16:27;14.20;;;8.85;;
23474;SDS011;11910;52.086;21.066;2023-07-20T08:18:53;15.60;;;8.57;;
23474;SDS011;11910;52.086;21.066;2023-07-20T08:21:18;11.95;;;8.60;;
23474;SDS011;11910;52.086;21.066;2023-07-20T08:23:44;9.35;;;7.55;;
23474;SDS011;11910;52.086;21.066;2023-07-20T08:26:09;11.90;;;8.25;;
23474;SDS011;11910;52.086;21.066;2023-07-20T08:28:35;14.68;;;7.35;;
23474;SDS011;11910;52.086;21.066;2023-07-20T08:31:00;8.95;;;7.60;;
23474;SDS011;11910;52.086;21.066;2023-07-20T08:33:27;14.63;;;7.35;;
23474;SDS011;11910;52.086;21.066;2023-07-20T08:35:54;9.25;;;6.43;;
23474;SDS011;11910;52.086;21.066;2023-07-20T08:38:21;7.85;;;6.35;;
23474;SDS011;11910;52.086;21.066;2023-07-20T08:40:47;8.18;;;6.15;;
23474;SDS011;11910;52.086;21.066;2023-07-20T08:43:13;10.30;;;6.07;;
23474;SDS011;11910;52.086;21.066;2023-07-20T08:45:43;7.65;;;6.07;;
23474;SDS011;11910;52.086;21.066;2023-07-20T08:48:10;8.35;;;6.57;;
23474;SDS011;11910;52.086;21.066;2023-07-20T08:50:37;9.57;;;6.15;;
23474;SDS011;11910;52.086;21.066;2023-07-20T08:53:03;8.98;;;6.20;;
23474;SDS011;11910;52.086;21.066;2023-07-20T08:55:29;10.18;;;5.88;;
23474;SDS011;11910;52.086;21.066;2023-07-20T08:57:57;10.18;;;5.50;;
23474;SDS011;11910;52.086;21.066;2023-07-20T09:00:24;9.23;;;5.60;;
23474;SDS011;11910;52.086;21.066;2023-07-20T09:02:55;10.65;;;5.82;;
23474;SDS011;11910;52.086;21.066;2023-07-20T09:05:23;11.80;;;5.65;;
23474;SDS011;11910;52.086;21.066;2023-07-20T09:07:52;10.23;;;5.57;;
23474;SDS011;11910;52.086;21.066;2023-07-20T09:10:20;9.75;;;5.93;;
23474;SDS011;11910;52.086;21.066;2023-07-20T09:12:46;7.45;;;5.47;;
23474;SDS011;11910;52.086;21.066;2023-07-20T09:15:12;9.00;;;5.38;;
23474;SDS011;11910;52.086;21.066;2023-07-20T09:17:37;9.45;;;6.20;;
23474;SDS011;11910;52.086;21.066;2023-07-20T09:20:04;9.77;;;5.57;;
23474;SDS011;11910;52.086;21.066;2023-07-20T09:22:35;7.25;;;5.55;;
23474;SDS011;11910;52.086;21.066;2023-07-20T09:25:05;8.02;;;5.63;;
23474;SDS011;11910;52.086;21.066;2023-07-20T09:27:36;8.10;;;5.35;;
23474;SDS011;11910;52.086;21.066;2023-07-20T09:30:03;8.00;;;4.80;;
23474;SDS011;11910;52.086;21.066;2023-07-20T09:32:30;7.00;;;4.40;;
23474;SDS011;11910;52.086;21.066;2023-07-20T09:34:55;7.75;;;4.85;;
23474;SDS011;11910;52.086;21.066;2023-07-20T09:37:21;7.25;;;5.00;;
23474;SDS011;11910;52.086;21.066;2023-07-20T09:39:48;8.88;;;4.88;;
23474;SDS011;11910;52.086;21.066;2023-07-20T09:42:16;5.95;;;4.53;;
23474;SDS011;11910;52.086;21.066;2023-07-20T09:44:44;7.82;;;3.75;;
23474;SDS011;11910;52.086;21.066;2023-07-20T09:47:10;3.80;;;3.10;;
23474;SDS011;11910;52.086;21.066;2023-07-20T09:49:39;4.32;;;3.10;;
23474;SDS011;11910;52.086;21.066;2023-07-20T09:52:06;5.47;;;3.40;;
23474;SDS011;11910;52.086;21.066;2023-07-20T09:54:34;6.82;;;3.78;;
23474;SDS011;11910;52.086;21.066;2023-07-20T09:57:03;4.47;;;3.33;;
23474;SDS011;11910;52.086;21.066;2023-07-20T09:59:31;4.88;;;3.40;;
23474;SDS011;11910;52.086;21.066;2023-07-20T10:01:57;5.43;;;3.70;;
23474;SDS011;11910;52.086;21.066;2023-07-20T10:04:25;7.03;;;3.80;;
23474;SDS011;11910;52.086;21.066;2023-07-20T10:06:53;14.63;;;4.60;;
23474;SDS011;11910;52.086;21.066;2023-07-20T10:09:21;7.55;;;3.72;;
23474;SDS011;11910;52.086;21.066;2023-07-20T10:11:52;5.97;;;3.20;;
23474;SDS011;11910;52.086;21.066;2023-07-20T10:14:21;4.90;;;2.97;;
23474;SDS011;11910;52.086;21.066;2023-07-20T10:16:51;11.02;;;3.83;;
23474;SDS011;11910;52.086;21.066;2023-07-20T10:19:23;8.15;;;3.70;;
23474;SDS011;11910;52.086;21.066;2023-07-20T10:22:00;7.75;;;3.47;;
23474;SDS011;11910;52.086;21.066;2023-07-20T10:24:32;7.65;;;3.33;;
23474;SDS011;11910;52.086;21.066;2023-07-20T10:27:00;5.70;;;3.38;;
23474;SDS011;11910;52.086;21.066;2023-07-20T10:29:26;6.07;;;3.30;;
23474;SDS011;11910;52.086;21.066;2023-07-20T10:31:53;5.75;;;3.00;;
23474;SDS011;11910;52.086;21.066;2023-07-20T10:34:19;3.78;;;3.00;;
23474;SDS011;11910;52.086;21.066;2023-07-20T10:36:46;5.68;;;3.17;;
23474;SDS011;11910;52.086;21.066;2023-07-20T10:39:22;4.38;;;2.92;;
23474;SDS011;11910;52.086;21.066;2023-07-20T10:44:33;3.85;;;2.90;;
23474;SDS011;11910;52.086;21.066;2023-07-20T10:46:59;4.13;;;2.80;;
23474;SDS011;11910;52.086;21.066;2023-07-20T10:49:30;4.65;;;3.08;;
23474;SDS011;11910;52.086;21.066;2023-07-20T10:51:59;3.95;;;2.80;;
23474;SDS011;11910;52.086;21.066;2023-07-20T10:56:55;4.07;;;2.88;;
23474;SDS011;11910;52.086;21.066;2023-07-20T11:01:51;7.57;;;2.72;;
23474;SDS011;11910;52.086;21.066;2023-07-20T11:04:37;2.80;;;2.33;;
23474;SDS011;11910;52.086;21.066;2023-07-20T11:07:10;5.07;;;2.67;;
23474;SDS011;11910;52.086;21.066;2023-07-20T11:09:39;3.50;;;3.00;;
23474;SDS011;11910;52.086;21.066;2023-07-20T11:12:15;9.32;;;4.55;;
23474;SDS011;11910;52.086;21.066;2023-07-20T11:14:43;5.65;;;3.70;;
23474;SDS011;11910;52.086;21.066;2023-07-20T11:17:19;7.78;;;3.38;;
23474;SDS011;11910;52.086;21.066;2023-07-20T11:19:55;4.18;;;2.50;;
23474;SDS011;11910;52.086;21.066;2023-07-20T11:22:22;4.75;;;3.10;;
23474;SDS011;11910;52.086;21.066;2023-07-20T11:24:48;7.72;;;2.75;;
23474;SDS011;11910;52.086;21.066;2023-07-20T11:27:14;4.95;;;2.22;;
23474;SDS011;11910;52.086;21.066;2023-07-20T11:29:40;3.42;;;2.40;;
23474;SDS011;11910;52.086;21.066;2023-07-20T11:32:06;5.97;;;2.28;;
23474;SDS011;11910;52.086;21.066;2023-07-20T11:34:32;3.67;;;2.50;;
23474;SDS011;11910;52.086;21.066;2023-07-20T11:37:00;16.63;;;4.95;;
23474;SDS011;11910;52.086;21.066;2023-07-20T11:39:27;8.35;;;3.40;;
23474;SDS011;11910;52.086;21.066;2023-07-20T11:41:54;5.20;;;3.05;;
23474;SDS011;11910;52.086;21.066;2023-07-20T11:44:22;2.80;;;2.22;;
23474;SDS011;11910;52.086;21.066;2023-07-20T11:49:27;3.22;;;2.45;;
23474;SDS011;11910;52.086;21.066;2023-07-20T11:51:53;3.35;;;2.10;;
23474;SDS011;11910;52.086;21.066;2023-07-20T11:54:18;6.40;;;2.60;;
23474;SDS011;11910;52.086;21.066;2023-07-20T11:56:44;3.38;;;2.85;;
23474;SDS011;11910;52.086;21.066;2023-07-20T11:59:10;4.03;;;2.25;;
23474;SDS011;11910;52.086;21.066;2023-07-20T12:01:35;2.85;;;2.25;;
23474;SDS011;11910;52.086;21.066;2023-07-20T12:04:02;4.05;;;2.58;;
23474;SDS011;11910;52.086;21.066;2023-07-20T12:06:29;3.60;;;2.40;;
23474;SDS011;11910;52.086;21.066;2023-07-20T12:08:55;3.35;;;2.60;;
23474;SDS011;11910;52.086;21.066;2023-07-20T12:11:35;4.25;;;2.67;;
23474;SDS011;11910;52.086;21.066;2023-07-20T12:14:02;4.25;;;2.70;;
23474;SDS011;11910;52.086;21.066;2023-07-20T12:16:29;3.90;;;2.28;;
23474;SDS011;11910;52.086;21.066;2023-07-20T12:19:05;5.60;;;2.72;;
23474;SDS011;11910;52.086;21.066;2023-07-20T12:21:41;5.68;;;2.65;;
23474;SDS011;11910;52.086;21.066;2023-07-20T12:24:11;4.60;;;2.63;;
23474;SDS011;11910;52.086;21.066;2023-07-20T12:26:36;4.93;;;2.75;;
23474;SDS011;11910;52.086;21.066;2023-07-20T12:29:02;5.45;;;2.53;;
23474;SDS011;11910;52.086;21.066;2023-07-20T12:31:36;3.58;;;2.40;;
23474;SDS011;11910;52.086;21.066;2023-07-20T12:34:02;4.72;;;2.53;;
23474;SDS011;11910;52.086;21.066;2023-07-20T12:36:27;3.50;;;2.47;;
23474;SDS011;11910;52.086;21.066;2023-07-20T12:38:53;3.67;;;2.25;;
23474;SDS011;11910;52.086;21.066;2023-07-20T12:41:18;4.88;;;2.40;;
23474;SDS011;11910;52.086;21.066;2023-07-20T12:43:44;3.15;;;2.38;;
23474;SDS011;11910;52.086;21.066;2023-07-20T12:46:11;5.13;;;2.67;;
23474;SDS011;11910;52.086;21.066;2023-07-20T12:48:38;2.90;;;2.55;;
23474;SDS011;11910;52.086;21.066;2023-07-20T12:51:06;2.33;;;2.00;;
23474;SDS011;11910;52.086;21.066;2023-07-20T12:53:31;4.28;;;2.40;;
23474;SDS011;11910;52.086;21.066;2023-07-20T12:55:57;2.67;;;2.40;;
23474;SDS011;11910;52.086;21.066;2023-07-20T12:58:23;3.47;;;2.63;;
23474;SDS011;11910;52.086;21.066;2023-07-20T13:00:49;7.13;;;2.47;;
23474;SDS011;11910;52.086;21.066;2023-07-20T13:03:15;3.75;;;2.20;;
23474;SDS011;11910;52.086;21.066;2023-07-20T13:05:41;6.25;;;2.50;;
23474;SDS011;11910;52.086;21.066;2023-07-20T13:08:07;5.30;;;2.60;;
23474;SDS011;11910;52.086;21.066;2023-07-20T13:10:32;5.05;;;2.47;;
23474;SDS011;11910;52.086;21.066;2023-07-20T13:12:59;3.72;;;2.50;;
23474;SDS011;11910;52.086;21.066;2023-07-20T13:15:29;4.40;;;2.55;;
23474;SDS011;11910;52.086;21.066;2023-07-20T13:17:56;4.45;;;2.60;;
23474;SDS011;11910;52.086;21.066;2023-07-20T13:20:22;7.13;;;2.53;;
23474;SDS011;11910;52.086;21.066;2023-07-20T13:22:48;4.32;;;2.40;;
23474;SDS011;11910;52.086;21.066;2023-07-20T13:25:14;4.63;;;2.20;;
23474;SDS011;11910;52.086;21.066;2023-07-20T13:27:39;3.10;;;2.20;;
23474;SDS011;11910;52.086;21.066;2023-07-20T13:30:05;4.10;;;2.08;;
23474;SDS011;11910;52.086;21.066;2023-07-20T13:32:32;2.80;;;1.90;;
23474;SDS011;11910;52.086;21.066;2023-07-20T13:34:58;3.53;;;2.05;;
23474;SDS011;11910;52.086;21.066;2023-07-20T13:37:24;2.35;;;2.10;;
23474;SDS011;11910;52.086;21.066;2023-07-20T13:39:50;4.18;;;2.28;;
23474;SDS011;11910;52.086;21.066;2023-07-20T13:42:16;2.22;;;2.03;;
23474;SDS011;11910;52.086;21.066;2023-07-20T13:44:42;3.75;;;2.10;;
23474;SDS011;11910;52.086;21.066;2023-07-20T13:47:07;2.40;;;2.20;;
23474;SDS011;11910;52.086;21.066;2023-07-20T13:49:33;2.20;;;2.00;;
23474;SDS011;11910;52.086;21.066;2023-07-20T13:51:59;5.10;;;2.40;;
23474;SDS011;11910;52.086;21.066;2023-07-20T13:54:25;2.75;;;2.10;;
23474;SDS011;11910;52.086;21.066;2023-07-20T13:56:51;3.72;;;2.10;;
23474;SDS011;11910;52.086;21.066;2023-07-20T13:59:17;4.10;;;2.53;;
23474;SDS011;11910;52.086;21.066;2023-07-20T14:01:43;9.88;;;3.25;;
23474;SDS011;11910;52.086;21.066;2023-07-20T14:04:08;7.75;;;3.17;;
23474;SDS011;11910;52.086;21.066;2023-07-20T14:06:34;6.03;;;2.50;;
23474;SDS011;11910;52.086;21.066;2023-07-20T14:09:00;3.63;;;2.35;;
23474;SDS011;11910;52.086;21.066;2023-07-20T14:11:27;3.00;;;1.92;;
23474;SDS011;11910;52.086;21.066;2023-07-20T14:13:52;4.38;;;2.10;;
23474;SDS011;11910;52.086;21.066;2023-07-20T14:16:19;2.08;;;1.77;;
23474;SDS011;11910;52.086;21.066;2023-07-20T14:18:45;2.50;;;1.80;;
23474;SDS011;11910;52.086;21.066;2023-07-20T14:21:14;2.45;;;1.80;;
23474;SDS011;11910;52.086;21.066;2023-07-20T14:23:40;2.28;;;1.70;;
23474;SDS011;11910;52.086;21.066;2023-07-20T14:26:05;2.03;;;1.70;;
23474;SDS011;11910;52.086;21.066;2023-07-20T14:28:32;3.60;;;1.77;;
23474;SDS011;11910;52.086;21.066;2023-07-20T14:30:58;3.05;;;1.60;;
23474;SDS011;11910;52.086;21.066;2023-07-20T14:33:24;3.28;;;1.80;;
23474;SDS011;11910;52.086;21.066;2023-07-20T14:35:49;3.03;;;1.80;;
23474;SDS011;11910;52.086;21.066;2023-07-20T14:38:15;3.75;;;1.95;;
23474;SDS011;11910;52.086;21.066;2023-07-20T14:40:40;2.78;;;1.90;;
23474;SDS011;11910;52.086;21.066;2023-07-20T14:43:06;3.10;;;1.73;;
23474;SDS011;11910;52.086;21.066;2023-07-20T14:45:32;3.30;;;2.00;;
23474;SDS011;11910;52.086;21.066;2023-07-20T14:47:57;2.17;;;1.88;;
23474;SDS011;11910;52.086;21.066;2023-07-20T14:50:24;4.40;;;1.95;;
23474;SDS011;11910;52.086;21.066;2023-07-20T14:52:49;5.20;;;2.08;;